createdAt,value
2023-01-08T00:00:18.021Z,30.90
2023-01-08T00:03:26.754Z,30.50
2023-01-08T00:06:19.675Z,33.40
2023-01-08T00:09:08.142Z,30.30
2023-01-08T00:11:56.413Z,33.30
2023-01-08T00:14:45.569Z,32.80
2023-01-08T00:17:33.916Z,34.20
2023-01-08T00:20:22.826Z,35.10
2023-01-08T00:23:16.367Z,35.60
2023-01-08T00:26:08.031Z,29.40
2023-01-08T00:28:56.223Z,36.90
2023-01-08T00:31:45.461Z,36.80
2023-01-08T00:34:33.857Z,38.00
2023-01-08T00:37:22.430Z,35.00
2023-01-08T00:40:11.439Z,33.70
2023-01-08T00:42:59.595Z,33.10
2023-01-08T00:45:48.008Z,33.80
2023-01-08T00:48:39.234Z,36.00
2023-01-08T00:51:27.821Z,34.90
2023-01-08T00:54:16.264Z,37.40
2023-01-08T00:57:04.346Z,39.30
2023-01-08T00:59:55.668Z,39.00
2023-01-08T01:02:45.783Z,38.30
2023-01-08T01:05:36.432Z,38.10
2023-01-08T01:08:25.000Z,38.90
2023-01-08T01:11:26.897Z,42.30
2023-01-08T01:14:15.200Z,37.00
2023-01-08T01:17:05.301Z,38.30
2023-01-08T01:19:53.633Z,41.30
2023-01-08T01:22:42.683Z,36.90
2023-01-08T01:25:30.638Z,35.40
2023-01-08T01:28:19.167Z,38.40
2023-01-08T01:31:07.884Z,40.90
2023-01-08T01:33:56.688Z,46.40
2023-01-08T01:36:46.795Z,39.70
2023-01-08T01:39:37.576Z,40.70
2023-01-08T01:42:41.619Z,42.70
2023-01-08T01:45:31.518Z,42.20
2023-01-08T01:48:19.926Z,41.70
2023-01-08T01:51:08.279Z,39.00
2023-01-08T01:53:56.850Z,45.40
2023-01-08T01:56:46.414Z,43.70
2023-01-08T01:59:34.658Z,41.30
2023-01-08T02:02:23.187Z,41.50
2023-01-08T02:05:12.316Z,49.20
2023-01-08T02:08:12.889Z,45.40
2023-01-08T02:11:14.871Z,40.40
2023-01-08T02:14:16.843Z,41.80
2023-01-08T02:17:10.916Z,45.40
2023-01-08T02:20:31.935Z,39.40
2023-01-08T02:23:49.429Z,42.10
2023-01-08T02:26:38.965Z,37.90
2023-01-08T02:29:29.491Z,44.00
2023-01-08T02:32:17.794Z,42.70
2023-01-08T02:35:08.278Z,42.40
2023-01-08T02:37:56.841Z,48.60
2023-01-08T02:41:15.953Z,45.10
2023-01-08T02:44:05.942Z,39.80
2023-01-08T02:46:56.200Z,48.50
2023-01-08T02:49:47.335Z,44.80
2023-01-08T02:52:43.028Z,43.80
2023-01-08T02:55:34.540Z,44.40
2023-01-08T02:58:24.835Z,44.80
2023-01-08T03:01:16.568Z,45.60
2023-01-08T03:04:19.860Z,44.40
2023-01-08T03:07:08.338Z,42.10
2023-01-08T03:09:56.869Z,40.30
2023-01-08T03:13:04.887Z,40.70
2023-01-08T03:16:01.195Z,43.80
2023-01-08T03:18:54.692Z,46.40
2023-01-08T03:21:44.880Z,41.90
2023-01-08T03:24:38.388Z,44.10
2023-01-08T03:27:32.731Z,45.30
2023-01-08T03:30:22.312Z,43.60
2023-01-08T03:33:13.512Z,47.30
2023-01-08T03:36:05.762Z,44.10
2023-01-08T03:39:26.363Z,40.10
2023-01-08T03:42:19.529Z,42.40
2023-01-08T03:45:09.105Z,44.20
2023-01-08T03:48:00.165Z,43.70
2023-01-08T03:50:49.503Z,40.50
2023-01-08T03:53:37.832Z,42.30
2023-01-08T03:56:26.486Z,42.00
2023-01-08T03:59:16.239Z,41.50
2023-01-08T04:02:04.753Z,42.30
2023-01-08T04:04:52.864Z,46.30
2023-01-08T04:07:41.521Z,42.30
2023-01-08T04:10:29.976Z,43.30
2023-01-08T04:13:18.230Z,41.30
2023-01-08T04:16:08.316Z,47.40
2023-01-08T04:18:56.651Z,42.80
2023-01-08T04:21:45.203Z,43.70
2023-01-08T04:24:33.672Z,46.20
2023-01-08T04:27:25.441Z,43.00
2023-01-08T04:30:14.587Z,45.00
2023-01-08T04:33:02.690Z,43.20
2023-01-08T04:35:50.858Z,44.70
2023-01-08T04:38:39.594Z,40.70
2023-01-08T04:41:28.314Z,44.50
2023-01-08T04:44:17.210Z,44.50
2023-01-08T04:47:05.789Z,44.40
2023-01-08T04:49:54.212Z,43.20
2023-01-08T04:52:42.866Z,42.70
2023-01-08T04:55:31.330Z,46.50
2023-01-08T04:58:19.775Z,42.40
2023-01-08T05:01:22.013Z,46.10
2023-01-08T05:04:11.735Z,45.30
2023-01-08T05:06:59.993Z,45.30
2023-01-08T05:09:48.125Z,43.70
2023-01-08T05:12:36.773Z,44.30
2023-01-08T05:15:26.382Z,39.80
2023-01-08T05:18:15.434Z,44.10
2023-01-08T05:21:05.324Z,44.40
2023-01-08T05:23:53.436Z,39.80
2023-01-08T05:26:41.577Z,44.10
2023-01-08T05:29:30.271Z,46.20
2023-01-08T05:32:19.588Z,43.30
2023-01-08T05:35:08.571Z,40.80
2023-01-08T05:37:59.610Z,43.90
2023-01-08T05:40:48.131Z,46.30
2023-01-08T05:43:37.533Z,40.30
2023-01-08T05:46:25.681Z,46.50
2023-01-08T05:49:16.152Z,43.90
2023-01-08T05:52:05.310Z,47.80
2023-01-08T05:54:53.562Z,44.60
2023-01-08T05:57:41.430Z,47.40
2023-01-08T06:00:30.236Z,44.50
2023-01-08T06:03:22.466Z,43.80
2023-01-08T06:06:12.268Z,43.50
2023-01-08T06:09:00.995Z,42.70
2023-01-08T06:11:49.423Z,51.00
2023-01-08T06:14:37.463Z,48.80
2023-01-08T06:17:25.804Z,47.70
2023-01-08T06:20:14.051Z,45.50
2023-01-08T06:23:02.768Z,43.50
2023-01-08T06:25:57.129Z,48.70
2023-01-08T06:28:45.200Z,46.60
2023-01-08T06:31:33.881Z,48.40
2023-01-08T06:34:21.906Z,45.60
2023-01-08T06:37:09.617Z,52.50
2023-01-08T06:39:57.565Z,45.70
2023-01-08T06:42:46.489Z,42.70
2023-01-08T06:45:34.174Z,40.30
2023-01-08T06:48:21.911Z,44.10
2023-01-08T06:51:10.017Z,44.80
2023-01-08T06:53:58.315Z,50.20
2023-01-08T06:56:53.926Z,49.50
2023-01-08T06:59:42.603Z,47.70
2023-01-08T07:02:30.519Z,51.20
2023-01-08T07:05:19.090Z,55.00
2023-01-08T07:08:10.397Z,51.90
2023-01-08T07:11:03.925Z,52.90
2023-01-08T07:13:52.430Z,54.20
2023-01-08T07:16:40.414Z,52.20
2023-01-08T07:19:28.257Z,48.60
2023-01-08T07:22:15.893Z,50.60
2023-01-08T07:25:05.212Z,45.10
2023-01-08T07:27:53.030Z,53.40
2023-01-08T07:30:40.983Z,50.70
2023-01-08T07:33:29.005Z,51.30
2023-01-08T07:36:22.470Z,46.70
2023-01-08T07:39:10.288Z,50.50
2023-01-08T07:41:58.448Z,49.60
2023-01-08T07:44:46.743Z,46.30
2023-01-08T07:47:34.842Z,44.50
2023-01-08T07:50:22.977Z,39.50
2023-01-08T07:53:13.816Z,43.90
2023-01-08T07:56:07.066Z,40.70
2023-01-08T07:58:54.986Z,44.20
2023-01-08T08:01:42.946Z,48.40
2023-01-08T08:04:31.057Z,47.90
2023-01-08T08:07:18.930Z,47.90
2023-01-08T08:10:07.653Z,47.80
2023-01-08T08:12:55.856Z,45.30
2023-01-08T08:15:43.797Z,49.20
2023-01-08T08:18:31.977Z,46.10
2023-01-08T08:21:19.732Z,48.80
2023-01-08T08:24:08.182Z,52.30
2023-01-08T08:26:56.144Z,52.00
2023-01-08T08:29:44.261Z,45.30
2023-01-08T08:32:32.341Z,53.40
2023-01-08T08:35:22.430Z,49.90
2023-01-08T08:38:14.323Z,49.40
2023-01-08T08:41:02.442Z,44.20
2023-01-08T08:43:51.525Z,48.50
2023-01-08T08:46:39.263Z,50.10
2023-01-08T08:49:27.320Z,46.30
2023-01-08T08:52:15.632Z,46.90
2023-01-08T08:55:03.723Z,52.40
2023-01-08T08:57:51.677Z,48.40
2023-01-08T09:00:45.535Z,45.50
2023-01-08T09:03:33.402Z,45.30
2023-01-08T09:06:21.685Z,50.30
2023-01-08T09:09:09.417Z,37.40
2023-01-08T09:11:57.782Z,50.00
2023-01-08T09:14:50.332Z,44.50
2023-01-08T09:17:38.401Z,42.40
2023-01-08T09:20:28.311Z,48.90
2023-01-08T09:23:16.196Z,48.40
2023-01-08T09:26:05.304Z,42.90
2023-01-08T09:28:52.900Z,47.80
2023-01-08T09:31:40.690Z,46.10
2023-01-08T09:34:29.948Z,49.30
2023-01-08T09:37:17.955Z,49.30
2023-01-08T09:40:06.604Z,44.30
2023-01-08T09:43:00.780Z,45.30
2023-01-08T09:45:56.715Z,42.80
2023-01-08T09:48:45.168Z,43.20
2023-01-08T09:51:39.021Z,46.10
2023-01-08T09:54:27.287Z,47.30
2023-01-08T09:57:20.184Z,41.10
2023-01-08T10:00:28.694Z,48.30
2023-01-08T10:03:16.688Z,50.10
2023-01-08T10:06:13.498Z,45.40
2023-01-08T10:09:01.419Z,41.50
2023-01-08T10:11:50.860Z,42.40
2023-01-08T10:14:48.065Z,46.70
2023-01-08T10:17:51.543Z,41.50
2023-01-08T10:20:39.875Z,48.70
2023-01-08T10:23:31.245Z,39.60
2023-01-08T10:26:36.627Z,46.10
2023-01-08T10:29:24.762Z,49.30
2023-01-08T10:32:20.525Z,48.50
2023-01-08T10:35:17.730Z,44.70
2023-01-08T10:38:06.215Z,48.60
2023-01-08T10:40:55.748Z,43.10
2023-01-08T10:44:04.363Z,51.30
2023-01-08T10:46:59.126Z,46.20
2023-01-08T10:49:47.604Z,43.00
2023-01-08T10:52:36.603Z,48.20
2023-01-08T10:55:26.401Z,45.10
2023-01-08T10:58:15.823Z,38.60
2023-01-08T11:01:20.514Z,44.00
2023-01-08T11:04:26.929Z,48.70
2023-01-08T11:07:23.227Z,46.00
2023-01-08T11:10:26.012Z,45.80
2023-01-08T11:13:20.015Z,46.10
2023-01-08T11:16:10.825Z,46.00
2023-01-08T11:18:58.907Z,38.70
2023-01-08T11:22:18.202Z,41.30
2023-01-08T11:25:14.203Z,39.20
2023-01-08T11:28:04.676Z,43.30
2023-01-08T11:31:09.570Z,43.80
2023-01-08T11:34:13.697Z,41.00
2023-01-08T11:37:24.055Z,42.20
2023-01-08T11:40:19.000Z,43.90
2023-01-08T11:43:51.159Z,45.60
2023-01-08T11:47:02.190Z,44.60
2023-01-08T11:50:34.609Z,45.70
2023-01-08T11:53:37.345Z,40.40
2023-01-08T11:56:50.199Z,43.50
2023-01-08T12:00:09.276Z,45.20
2023-01-08T12:03:17.507Z,44.70
2023-01-08T12:06:28.308Z,35.90
2023-01-08T12:09:22.695Z,45.60
2023-01-08T12:12:53.259Z,48.10
2023-01-08T12:16:11.127Z,43.20
2023-01-08T12:19:05.643Z,44.30
2023-01-08T12:21:59.763Z,45.70
2023-01-08T12:25:24.430Z,47.20
2023-01-08T12:29:00.100Z,46.30
2023-01-08T12:32:27.961Z,39.20
2023-01-08T12:35:23.833Z,42.80
2023-01-08T12:38:24.337Z,34.90
2023-01-08T12:41:16.705Z,46.20
2023-01-08T12:44:11.971Z,46.00
2023-01-08T12:47:04.410Z,43.40
2023-01-08T12:50:21.874Z,44.20
2023-01-08T12:53:37.011Z,46.20
2023-01-08T12:57:02.987Z,45.70
2023-01-08T13:00:19.651Z,45.10
2023-01-08T13:03:22.909Z,45.80
2023-01-08T13:06:19.495Z,44.20
2023-01-08T13:09:09.065Z,46.10
2023-01-08T13:12:00.442Z,44.70
2023-01-08T13:14:51.789Z,46.60
2023-01-08T13:17:41.174Z,42.20
2023-01-08T13:20:34.235Z,38.70
2023-01-08T13:23:30.964Z,46.10
2023-01-08T13:26:30.405Z,44.90
2023-01-08T13:29:41.592Z,40.10
2023-01-08T13:32:48.705Z,45.30
2023-01-08T13:35:39.058Z,45.30
2023-01-08T13:38:28.799Z,46.40
2023-01-08T13:41:42.849Z,51.60
2023-01-08T13:44:42.970Z,47.90
2023-01-08T13:47:37.439Z,48.00
2023-01-08T13:50:29.602Z,51.30
2023-01-08T13:53:19.243Z,48.00
2023-01-08T13:56:09.836Z,44.40
2023-01-08T13:58:58.098Z,48.50
2023-01-08T14:02:00.410Z,47.30
2023-01-08T14:04:52.547Z,45.30
2023-01-08T14:07:41.022Z,51.40
2023-01-08T14:10:31.013Z,46.50
2023-01-08T14:13:27.861Z,40.80
2023-01-08T14:16:17.284Z,42.80
2023-01-08T14:19:05.675Z,43.10
2023-01-08T14:22:04.228Z,42.10
2023-01-08T14:24:57.471Z,49.40
2023-01-08T14:28:19.776Z,44.00
2023-01-08T14:31:22.503Z,49.30
2023-01-08T14:34:11.382Z,45.90
2023-01-08T14:36:59.451Z,42.60
2023-01-08T14:39:55.228Z,46.00
2023-01-08T14:42:47.263Z,42.00
2023-01-08T14:45:38.408Z,42.70
2023-01-08T14:48:44.073Z,43.30
2023-01-08T14:51:32.463Z,47.20
2023-01-08T14:54:28.774Z,43.20
2023-01-08T14:57:18.580Z,48.10
2023-01-08T15:00:30.208Z,44.30
2023-01-08T15:03:41.199Z,45.90
2023-01-08T15:06:32.599Z,49.10
2023-01-08T15:09:35.013Z,44.40
2023-01-08T15:12:26.463Z,42.70
2023-01-08T15:15:24.467Z,49.20
2023-01-08T15:18:13.111Z,48.00
2023-01-08T15:21:01.301Z,42.00
2023-01-08T15:23:56.658Z,49.10
2023-01-08T15:26:44.614Z,47.20
2023-01-08T15:29:37.202Z,36.90
2023-01-08T15:32:40.640Z,51.20
2023-01-08T15:35:28.584Z,45.70
2023-01-08T15:38:17.717Z,47.90
2023-01-08T15:41:05.979Z,44.50
2023-01-08T15:43:54.766Z,46.90
2023-01-08T15:46:43.027Z,47.00
2023-01-08T15:49:33.458Z,47.00
2023-01-08T15:52:29.702Z,47.90
2023-01-08T15:55:21.770Z,48.70
2023-01-08T15:58:12.731Z,48.20
2023-01-08T16:01:00.359Z,53.10
2023-01-08T16:03:49.019Z,52.60
2023-01-08T16:06:37.027Z,48.20
2023-01-08T16:09:24.850Z,46.60
2023-01-08T16:12:13.010Z,43.10
2023-01-08T16:15:00.915Z,46.70
2023-01-08T16:17:48.889Z,50.70
2023-01-08T16:20:39.099Z,45.00
2023-01-08T16:23:27.406Z,46.70
2023-01-08T16:26:16.119Z,45.00
2023-01-08T16:29:03.848Z,47.80
2023-01-08T16:31:52.095Z,45.30
2023-01-08T16:34:39.952Z,48.20
2023-01-08T16:37:27.858Z,50.10
2023-01-08T16:40:16.684Z,44.90
2023-01-08T16:43:04.706Z,43.30
2023-01-08T16:45:53.027Z,48.30
2023-01-08T16:48:45.479Z,42.20
2023-01-08T16:51:33.322Z,42.60
2023-01-08T16:54:21.861Z,41.20
2023-01-08T16:57:10.235Z,42.60
2023-01-08T16:59:58.223Z,45.40
2023-01-08T17:02:45.798Z,44.10
2023-01-08T17:05:36.990Z,50.40
2023-01-08T17:08:28.294Z,45.90
2023-01-08T17:11:19.918Z,49.80
2023-01-08T17:14:08.834Z,45.80
2023-01-08T17:16:57.094Z,42.40
2023-01-08T17:19:44.842Z,40.60
2023-01-08T17:22:32.939Z,49.00
2023-01-08T17:25:21.500Z,46.90
2023-01-08T17:28:09.222Z,46.70
2023-01-08T17:31:11.851Z,43.20
2023-01-08T17:33:59.863Z,47.70
2023-01-08T17:36:47.942Z,47.20
2023-01-08T17:39:36.179Z,50.10
2023-01-08T17:42:28.407Z,48.70
2023-01-08T17:45:17.410Z,48.60
2023-01-08T17:48:06.442Z,43.40
2023-01-08T17:50:54.351Z,46.70
2023-01-08T17:53:42.300Z,42.40
2023-01-08T17:56:30.466Z,49.10
2023-01-08T17:59:20.115Z,47.30
2023-01-08T18:02:16.099Z,46.40
2023-01-08T18:05:04.626Z,47.90
2023-01-08T18:07:52.794Z,43.80
2023-01-08T18:10:40.728Z,42.30
2023-01-08T18:13:29.969Z,44.80
2023-01-08T18:16:18.067Z,47.10
2023-01-08T18:19:06.450Z,49.10
2023-01-08T18:21:55.101Z,50.10
2023-01-08T18:24:43.457Z,50.20
2023-01-08T18:27:31.495Z,49.20
2023-01-08T18:30:19.733Z,49.30
2023-01-08T18:33:08.193Z,46.90
2023-01-08T18:36:00.783Z,45.90
2023-01-08T18:38:49.940Z,49.10
2023-01-08T18:42:00.150Z,47.00
2023-01-08T18:44:48.535Z,47.20
2023-01-08T18:47:36.674Z,50.80
2023-01-08T18:50:24.780Z,41.60
2023-01-08T18:53:12.944Z,48.90
2023-01-08T18:56:02.170Z,49.20
2023-01-08T18:58:49.945Z,47.00
2023-01-08T19:01:37.931Z,47.10
2023-01-08T19:04:27.028Z,48.80
2023-01-08T19:07:17.058Z,50.30
2023-01-08T19:10:05.460Z,47.40
2023-01-08T19:12:53.433Z,45.00
2023-01-08T19:15:41.410Z,46.30
2023-01-08T19:18:29.671Z,47.90
2023-01-08T19:21:19.497Z,50.80
2023-01-08T19:24:08.303Z,51.30
2023-01-08T19:26:56.410Z,51.30
2023-01-08T19:29:44.846Z,47.50
2023-01-08T19:32:33.357Z,50.10
2023-01-08T19:35:21.265Z,51.70
2023-01-08T19:38:09.314Z,45.90
2023-01-08T19:41:00.387Z,42.70
2023-01-08T19:43:48.411Z,46.80
2023-01-08T19:46:37.221Z,47.70
2023-01-08T19:49:26.025Z,42.00
2023-01-08T19:52:15.448Z,45.20
2023-01-08T19:55:04.751Z,47.80
2023-01-08T19:57:55.521Z,50.10
2023-01-08T20:00:43.886Z,50.50
2023-01-08T20:03:32.281Z,51.60
2023-01-08T20:06:25.500Z,48.80
2023-01-08T20:09:13.470Z,45.80
2023-01-08T20:12:02.853Z,47.90
2023-01-08T20:14:50.813Z,50.80
2023-01-08T20:17:42.784Z,47.30
2023-01-08T20:20:31.513Z,48.10
2023-01-08T20:23:21.076Z,48.40
2023-01-08T20:26:20.066Z,50.40
2023-01-08T20:29:17.689Z,42.80
2023-01-08T20:32:06.098Z,48.50
2023-01-08T20:34:54.234Z,46.80
2023-01-08T20:37:43.638Z,50.50
2023-01-08T20:40:35.634Z,50.30
2023-01-08T20:43:24.239Z,48.20
2023-01-08T20:46:14.848Z,46.50
2023-01-08T20:49:07.290Z,48.70
2023-01-08T20:52:01.359Z,46.90
2023-01-08T20:54:53.544Z,47.70
2023-01-08T20:57:41.730Z,45.50
2023-01-08T21:00:29.408Z,54.90
2023-01-08T21:03:18.082Z,44.40
2023-01-08T21:06:12.798Z,44.50
2023-01-08T21:09:06.793Z,51.00
2023-01-08T21:11:54.698Z,44.70
2023-01-08T21:14:42.583Z,50.80
2023-01-08T21:17:30.731Z,49.30
2023-01-08T21:20:19.391Z,52.30
2023-01-08T21:23:07.693Z,48.70
2023-01-08T21:26:02.638Z,53.40
2023-01-08T21:28:50.753Z,44.30
2023-01-08T21:31:39.843Z,48.00
2023-01-08T21:34:27.773Z,48.00
2023-01-08T21:37:16.050Z,52.10
2023-01-08T21:40:05.807Z,52.00
2023-01-08T21:43:13.369Z,49.10
2023-01-08T21:46:02.693Z,47.80
2023-01-08T21:48:52.311Z,45.40
2023-01-08T21:51:59.705Z,45.40
2023-01-08T21:54:51.546Z,50.00
2023-01-08T21:57:40.160Z,50.30
2023-01-08T22:00:28.695Z,50.70
2023-01-08T22:03:16.378Z,45.40
2023-01-08T22:06:06.472Z,47.80
2023-01-08T22:08:56.941Z,44.60
2023-01-08T22:11:47.891Z,47.60
2023-01-08T22:14:36.367Z,45.10
2023-01-08T22:17:26.615Z,51.20
2023-01-08T22:20:14.438Z,47.10
2023-01-08T22:23:02.309Z,48.80
2023-01-08T22:25:50.356Z,50.80
2023-01-08T22:28:40.087Z,45.60
2023-01-08T22:31:28.811Z,47.40
2023-01-08T22:34:19.904Z,50.90
2023-01-08T22:37:07.978Z,45.90
2023-01-08T22:39:55.852Z,43.70
2023-01-08T22:42:44.021Z,47.00
2023-01-08T22:45:32.152Z,47.00
2023-01-08T22:48:20.174Z,49.70
2023-01-08T22:51:08.468Z,42.50
2023-01-08T22:53:59.344Z,48.30
2023-01-08T22:56:47.469Z,49.80
2023-01-08T22:59:35.686Z,49.80
2023-01-08T23:02:24.617Z,46.20
2023-01-08T23:05:12.788Z,46.80
2023-01-08T23:08:01.397Z,48.30
2023-01-08T23:10:49.770Z,54.60
2023-01-08T23:13:38.383Z,48.80
2023-01-08T23:16:26.269Z,48.50
2023-01-08T23:19:14.190Z,48.40
2023-01-08T23:22:02.040Z,50.10
2023-01-08T23:24:49.982Z,53.90
2023-01-08T23:27:38.502Z,51.70
2023-01-08T23:30:31.409Z,50.10
2023-01-08T23:33:19.333Z,52.10
2023-01-08T23:36:08.003Z,51.70
2023-01-08T23:38:57.062Z,47.30
2023-01-08T23:41:44.718Z,53.30
2023-01-08T23:44:32.693Z,53.30
2023-01-08T23:47:20.592Z,49.80
2023-01-08T23:50:09.519Z,52.30
2023-01-08T23:52:58.483Z,50.50
2023-01-08T23:55:46.060Z,50.30
2023-01-08T23:58:34.316Z,52.60
